Time;durP1;ratioP1;P1;durP2;ratioP2;P2;SDS_P1;SDS_P2;PMS_P1;PMS_P2;Temp;Humidity;BMP_temperature;BMP_pressure;BME280_temperature;BME280_humidity;BME280_pressure;Samples;Min_cycle;Max_cycle;Signal;HPM_P1;HPM_P2
2023/09/25 00:02:07;;;;;;;18.90;11.30;;;;;;;16.95;64.05;100273.55;107226;1261;60595;-40
2023/09/25 00:04:35;;;;;;;15.50;11.40;;;;;;;16.98;64.08;100271.94;107244;1260;73949;-40
2023/09/25 00:07:04;;;;;;;19.70;11.50;;;;;;;17.00;63.99;100272.19;107266;1257;67706;-40
2023/09/25 00:09:31;;;;;;;16.50;11.10;;;;;;;17.02;63.99;100272.29;107248;1256;72746;-40
2023/09/25 00:11:59;;;;;;;21.20;11.80;;;;;;;17.05;63.84;100271.59;107305;1256;60118;-40
2023/09/25 00:14:27;;;;;;;17.20;10.80;;;;;;;17.06;63.83;100269.02;107250;1256;60394;-40
2023/09/25 00:16:55;;;;;;;17.40;10.70;;;;;;;17.06;63.66;100270.20;107248;1256;73848;-40
2023/09/25 00:19:22;;;;;;;19.00;11.30;;;;;;;17.07;63.62;100266.67;107195;1256;65743;-40
2023/09/25 00:21:50;;;;;;;20.40;11.30;;;;;;;17.07;63.65;100272.63;107236;1256;73108;-40
2023/09/25 00:24:18;;;;;;;18.00;10.90;;;;;;;17.09;63.73;100269.36;107244;1256;60475;-40
2023/09/25 00:26:46;;;;;;;13.90;9.80;;;;;;;17.13;63.92;100275.73;107277;1256;60454;-40
2023/09/25 00:29:14;;;;;;;18.30;10.90;;;;;;;17.15;64.03;100271.98;107217;1256;73771;-40
2023/09/25 00:31:41;;;;;;;18.70;10.40;;;;;;;17.18;63.80;100270.59;107095;1256;66649;-40
2023/09/25 00:34:09;;;;;;;12.10;9.90;;;;;;;17.19;63.33;100271.23;107233;1261;71673;-40
2023/09/25 00:36:37;;;;;;;16.20;10.40;;;;;;;17.20;63.01;100273.03;107214;1256;60444;-40
2023/09/25 00:39:06;;;;;;;14.00;10.60;;;;;;;17.22;62.80;100270.23;107244;1257;60988;-40
2023/09/25 00:41:35;;;;;;;18.80;10.70;;;;;;;17.24;62.49;100273.98;107069;1256;73893;-40
2023/09/25 00:44:03;;;;;;;13.30;10.00;;;;;;;17.25;62.67;100273.52;107218;1255;65667;-40
2023/09/25 00:46:31;;;;;;;14.70;10.20;;;;;;;17.26;63.07;100275.96;107063;1256;72656;-40
2023/09/25 00:48:59;;;;;;;14.80;9.80;;;;;;;17.26;63.23;100274.01;107313;1256;60555;-40
2023/09/25 00:51:27;;;;;;;15.40;10.10;;;;;;;17.25;62.95;100278.54;107309;1256;60440;-40
2023/09/25 00:53:55;;;;;;;15.20;8.80;;;;;;;17.27;62.92;100283.02;107185;1256;73880;-40
2023/09/25 00:56:23;;;;;;;14.50;8.80;;;;;;;17.34;62.86;100283.45;107234;1257;67702;-40
2023/09/25 00:58:51;;;;;;;16.50;9.80;;;;;;;17.37;62.97;100285.13;107083;1262;72707;-40
2023/09/25 01:01:19;;;;;;;15.40;9.90;;;;;;;17.36;63.34;100283.40;107120;1256;60517;-40
2023/09/25 01:03:48;;;;;;;19.00;10.00;;;;;;;17.37;63.70;100278.71;107208;1256;59594;-40
2023/09/25 01:06:16;;;;;;;16.00;9.20;;;;;;;17.36;63.34;100278.31;107218;1257;73900;-40
2023/09/25 01:08:44;;;;;;;14.50;8.90;;;;;;;17.36;63.35;100277.60;107168;1256;66785;-38
2023/09/25 01:11:11;;;;;;;14.90;9.90;;;;;;;17.37;63.82;100274.23;107080;1258;72722;-39
2023/09/25 01:13:39;;;;;;;14.50;8.60;;;;;;;17.35;63.48;100274.70;107296;1257;60342;-40
2023/09/25 01:16:06;;;;;;;15.20;9.80;;;;;;;17.33;63.38;100274.98;107295;1256;60517;-40
2023/09/25 01:18:34;;;;;;;14.70;9.90;;;;;;;17.32;63.41;100274.61;107185;1256;73870;-40
2023/09/25 01:21:03;;;;;;;14.90;8.90;;;;;;;17.31;63.63;100269.66;107269;1257;66815;-40
2023/09/25 01:23:31;;;;;;;11.70;8.50;;;;;;;17.36;63.62;100271.33;107266;1257;71561;-40
2023/09/25 01:25:59;;;;;;;11.00;8.60;;;;;;;17.41;63.37;100272.70;107290;1257;60457;-38
2023/09/25 01:28:27;;;;;;;13.10;9.00;;;;;;;17.43;63.38;100278.89;107326;1256;60447;-38
2023/09/25 01:30:56;;;;;;;11.90;8.90;;;;;;;17.43;63.25;100279.36;107305;1256;72600;-39
2023/09/25 01:33:23;;;;;;;15.20;9.30;;;;;;;17.42;63.33;100281.39;107278;1260;67703;-39
2023/09/25 01:35:52;;;;;;;12.50;9.60;;;;;;;17.42;63.23;100281.39;107287;1257;71459;-39
2023/09/25 01:38:19;;;;;;;15.40;9.60;;;;;;;17.41;63.31;100281.00;107347;1260;60456;-39
2023/09/25 01:40:47;;;;;;;11.60;8.90;;;;;;;17.39;63.28;100281.60;107289;1255;60316;-39
2023/09/25 01:43:15;;;;;;;15.90;10.00;;;;;;;17.37;63.18;100278.08;107290;1257;71608;-39
2023/09/25 01:45:42;;;;;;;15.60;10.00;;;;;;;17.35;63.41;100280.33;107266;1256;66602;-39
2023/09/25 01:48:11;;;;;;;12.80;9.60;;;;;;;17.31;63.37;100279.91;107240;1256;72741;-39
2023/09/25 01:50:39;;;;;;;20.30;9.00;;;;;;;17.28;63.42;100282.72;107241;1256;60151;-39
2023/09/25 01:53:06;;;;;;;14.80;8.90;;;;;;;17.31;63.06;100288.38;107295;1256;60054;-39
2023/09/25 01:55:36;;;;;;;16.60;9.80;;;;;;;17.36;63.36;100284.41;107265;1255;73780;-39
2023/09/25 01:58:04;;;;;;;18.40;9.60;;;;;;;17.36;63.77;100287.94;107159;1257;69042;-39
2023/09/25 02:00:32;;;;;;;14.50;8.80;;;;;;;17.37;64.16;100287.00;107167;1257;72660;-39
2023/09/25 02:03:00;;;;;;;15.70;9.60;;;;;;;17.36;64.23;100288.73;107320;1256;60792;-39
2023/09/25 02:05:27;;;;;;;12.60;9.90;;;;;;;17.37;63.92;100288.95;107121;1258;60173;-39
2023/09/25 02:07:55;;;;;;;19.00;10.50;;;;;;;17.37;63.82;100284.88;107136;1257;73883;-39
2023/09/25 02:10:24;;;;;;;15.40;11.90;;;;;;;17.38;63.71;100291.06;107292;1257;66327;-39
2023/09/25 02:12:51;;;;;;;18.80;11.70;;;;;;;17.38;63.28;100288.34;107292;1256;72684;-38
2023/09/25 02:15:19;;;;;;;16.40;12.10;;;;;;;17.40;63.23;100289.84;107398;1260;60332;-39
2023/09/25 02:17:47;;;;;;;16.60;11.40;;;;;;;17.41;63.25;100288.19;107114;1257;60483;-39
2023/09/25 02:20:20;;;;;;;17.40;11.80;;;;;;;17.41;62.66;100290.16;107197;1255;73843;-39
2023/09/25 02:22:48;;;;;;;20.50;11.90;;;;;;;17.41;62.52;100292.28;107290;1256;67570;-39
2023/09/25 02:25:16;;;;;;;16.40;11.00;;;;;;;17.43;62.25;100292.38;107217;1260;72715;-39
2023/09/25 02:27:46;;;;;;;17.40;11.90;;;;;;;17.42;62.17;100295.89;107286;1257;60345;-39
2023/09/25 02:30:15;;;;;;;15.20;9.10;;;;;;;17.44;62.11;100299.73;107287;1257;61127;-39
2023/09/25 02:32:44;;;;;;;14.10;9.20;;;;;;;17.52;61.70;100297.11;107269;1257;73857;-39
2023/09/25 02:35:12;;;;;;;14.90;9.70;;;;;;;17.60;61.85;100295.38;107268;1257;68103;-39
2023/09/25 02:37:40;;;;;;;16.40;9.80;;;;;;;17.58;61.74;100288.95;107314;1256;73347;-39
2023/09/25 02:40:14;;;;;;;15.40;10.20;;;;;;;17.66;61.91;100300.74;107111;1257;60434;-39
2023/09/25 02:42:45;;;;;;;15.90;9.50;;;;;;;17.70;62.11;100299.43;107300;1256;60317;-39
2023/09/25 02:45:15;;;;;;;14.00;9.60;;;;;;;17.71;61.88;100297.56;107125;1257;73828;-38
2023/09/25 02:47:43;;;;;;;16.00;10.30;;;;;;;17.73;61.46;100303.68;107301;1256;66406;-38
2023/09/25 02:50:12;;;;;;;15.80;10.00;;;;;;;17.74;61.11;100304.70;107279;1256;71854;-39
2023/09/25 02:52:42;;;;;;;19.00;10.30;;;;;;;17.74;61.08;100303.84;107243;1256;60404;-39
2023/09/25 02:55:10;;;;;;;;;;;;;;;17.73;61.28;100299.68;107299;1257;60388;-39
2023/09/25 02:57:37;;;;;;;15.40;10.30;;;;;;;17.73;61.22;100301.09;107301;1257;73883;-39
2023/09/25 03:00:11;;;;;;;15.30;9.50;;;;;;;17.70;61.67;100298.81;107279;1257;67669;-39
2023/09/25 03:02:39;;;;;;;17.80;10.20;;;;;;;17.68;61.84;100302.71;107265;1256;72697;-39
2023/09/25 03:05:08;;;;;;;12.90;10.10;;;;;;;17.64;61.79;100300.34;107206;1256;60448;-39
2023/09/25 03:07:35;;;;;;;14.20;9.60;;;;;;;17.60;63.87;100305.19;107197;1255;60405;-39
2023/09/25 03:10:03;;;;;;;15.90;9.20;;;;;;;17.59;65.48;100304.86;107220;1257;73834;-39
2023/09/25 03:12:31;;;;;;;13.40;9.50;;;;;;;17.59;66.07;100311.51;107284;1256;66366;-39
2023/09/25 03:14:59;;;;;;;14.20;9.60;;;;;;;17.59;65.61;100309.64;107235;1257;72703;-39
2023/09/25 03:17:26;;;;;;;13.50;10.00;;;;;;;17.58;64.30;100308.19;107257;1256;61038;-39
2023/09/25 03:19:54;;;;;;;15.80;10.10;;;;;;;17.52;63.44;100313.64;107245;1256;60425;-39
2023/09/25 03:22:21;;;;;;;12.50;10.40;;;;;;;17.41;63.90;100312.16;107214;1260;73869;-39
2023/09/25 03:24:49;;;;;;;14.80;9.90;;;;;;;17.30;65.15;100313.98;107052;1257;67567;-39
2023/09/25 03:27:16;;;;;;;13.40;9.80;;;;;;;17.18;65.52;100316.93;107271;1260;72656;-39
2023/09/25 03:29:44;;;;;;;17.50;10.00;;;;;;;17.03;65.56;100321.20;107215;1260;61752;-39
2023/09/25 03:32:12;;;;;;;15.90;10.40;;;;;;;16.97;65.95;100325.38;107090;1263;59261;-39
2023/09/25 03:34:40;;;;;;;17.10;9.80;;;;;;;16.95;65.74;100325.21;107248;1256;72877;-39
2023/09/25 03:37:07;;;;;;;16.70;10.20;;;;;;;16.94;65.48;100328.26;107094;1256;67500;-39
2023/09/25 03:39:36;;;;;;;14.50;10.20;;;;;;;16.89;65.73;100331.11;107245;1257;72758;-39
2023/09/25 03:42:05;;;;;;;13.10;9.70;;;;;;;16.79;66.66;100331.88;107215;1256;60318;-39
2023/09/25 03:44:33;;;;;;;23.10;11.20;;;;;;;16.70;66.96;100339.55;107270;1257;60184;-39
2023/09/25 03:47:01;;;;;;;16.30;11.90;;;;;;;16.65;66.43;100341.61;107194;1261;73900;-39
2023/09/25 03:49:28;;;;;;;16.90;12.30;;;;;;;16.57;65.76;100348.53;107054;1263;67707;-39
2023/09/25 03:51:56;;;;;;;20.10;12.40;;;;;;;16.45;65.80;100352.08;107264;1256;71941;-38
2023/09/25 03:54:24;;;;;;;19.70;12.20;;;;;;;16.36;66.01;100355.49;107215;1260;61658;-39
2023/09/25 03:56:52;;;;;;;15.90;11.50;;;;;;;16.30;66.35;100357.14;107248;1256;60940;-39
2023/09/25 03:59:19;;;;;;;20.20;12.10;;;;;;;16.27;66.65;100360.55;107262;1256;72578;-39
2023/09/25 04:01:47;;;;;;;17.40;12.90;;;;;;;16.25;66.85;100364.75;107252;1256;65686;-39
2023/09/25 04:04:15;;;;;;;18.60;12.20;;;;;;;16.22;67.00;100367.52;107264;1257;72724;-39
2023/09/25 04:06:43;;;;;;;16.60;12.60;;;;;;;16.21;67.12;100372.60;107095;1262;60572;-39
2023/09/25 04:09:11;;;;;;;18.70;13.40;;;;;;;16.19;67.24;100374.76;107216;1261;60288;-39
2023/09/25 04:11:38;;;;;;;20.80;12.70;;;;;;;16.12;67.28;100377.01;107260;1256;72628;-38
2023/09/25 04:14:06;;;;;;;18.50;12.30;;;;;;;16.09;67.35;100380.26;107260;1257;67584;-39
2023/09/25 04:16:34;;;;;;;18.60;12.20;;;;;;;16.07;67.47;100382.50;107190;1259;71362;-39
2023/09/25 04:19:04;;;;;;;17.50;13.10;;;;;;;16.07;67.60;100380.56;107253;1257;60444;-39
2023/09/25 04:21:32;;;;;;;17.20;12.10;;;;;;;16.06;67.69;100379.45;107239;1263;60477;-39
2023/09/25 04:24:02;;;;;;;17.80;13.00;;;;;;;16.04;67.92;100384.95;107211;1256;73882;-39
2023/09/25 04:26:29;;;;;;;18.20;12.80;;;;;;;16.01;67.88;100388.36;107221;1256;66443;-39
2023/09/25 04:28:57;;;;;;;22.10;12.90;;;;;;;15.97;67.93;100394.48;107206;1260;72685;-39
2023/09/25 04:31:24;;;;;;;18.90;13.30;;;;;;;15.93;67.86;100398.73;107227;1257;61709;-39
2023/09/25 04:33:52;;;;;;;19.50;12.50;;;;;;;15.90;68.03;100404.08;107276;1261;59808;-39
2023/09/25 04:36:23;;;;;;;19.70;12.20;;;;;;;15.90;68.19;100398.39;107259;1256;73815;-39
2023/09/25 04:38:51;;;;;;;17.80;12.30;;;;;;;15.89;68.45;100405.23;107223;1257;67928;-39
2023/09/25 04:41:19;;;;;;;17.50;12.60;;;;;;;15.86;68.46;100400.75;107254;1260;71765;-39
2023/09/25 04:43:47;;;;;;;19.70;12.30;;;;;;;15.84;68.75;100407.04;107248;1256;60393;-39
2023/09/25 04:46:14;;;;;;;25.00;12.40;;;;;;;15.87;68.98;100402.16;107266;1256;59235;-39
2023/09/25 04:48:42;;;;;;;19.00;12.00;;;;;;;15.91;68.85;100405.96;107243;1261;73866;-39
2023/09/25 04:51:11;;;;;;;24.20;12.50;;;;;;;15.93;68.97;100407.87;107272;1256;66889;-39
2023/09/25 04:53:39;;;;;;;17.80;11.80;;;;;;;15.98;68.95;100412.30;107245;1257;72697;-39
2023/09/25 04:56:06;;;;;;;17.80;11.90;;;;;;;16.03;69.05;100412.70;107199;1257;62088;-39
2023/09/25 04:58:34;;;;;;;19.70;12.30;;;;;;;16.07;69.13;100412.60;107263;1260;60328;-39
2023/09/25 05:01:02;;;;;;;23.30;11.60;;;;;;;16.12;69.30;100413.29;107248;1256;73902;-39
2023/09/25 05:03:30;;;;;;;17.90;12.60;;;;;;;16.18;69.45;100416.96;107324;1260;67621;-39
2023/09/25 05:05:57;;;;;;;20.30;12.60;;;;;;;16.23;69.32;100422.81;107230;1260;72687;-39
2023/09/25 05:08:25;;;;;;;19.80;12.40;;;;;;;16.29;69.31;100427.73;107260;1257;61703;-39
2023/09/25 05:10:53;;;;;;;15.90;11.70;;;;;;;16.36;69.30;100422.11;107244;1262;60323;-39
2023/09/25 05:13:20;;;;;;;18.00;11.90;;;;;;;16.45;69.36;100426.29;107223;1256;73862;-39
2023/09/25 05:15:48;;;;;;;20.70;11.90;;;;;;;16.53;69.40;100427.86;107264;1260;67666;-39
2023/09/25 05:18:16;;;;;;;19.10;12.10;;;;;;;16.59;69.42;100429.44;107271;1260;72750;-39
2023/09/25 05:20:44;;;;;;;19.90;12.10;;;;;;;16.66;69.30;100430.09;107255;1262;60339;-39
2023/09/25 05:23:11;;;;;;;16.10;11.90;;;;;;;16.71;69.39;100427.48;107241;1256;60473;-39
2023/09/25 05:25:39;;;;;;;15.00;11.00;;;;;;;16.79;69.26;100430.79;107202;1258;73028;-39
2023/09/25 05:28:08;;;;;;;14.40;10.90;;;;;;;16.92;69.24;100437.02;107313;1260;67869;-39
2023/09/25 05:30:35;;;;;;;14.60;10.80;;;;;;;17.05;69.20;100439.50;107230;1257;72709;-39
2023/09/25 05:33:03;;;;;;;16.70;11.70;;;;;;;17.14;69.19;100440.20;107273;1263;60332;-39
2023/09/25 05:35:31;;;;;;;16.30;11.00;;;;;;;17.21;69.21;100436.99;107264;1258;59579;-39
2023/09/25 05:37:59;;;;;;;16.10;11.20;;;;;;;17.28;69.29;100436.51;107253;1257;72574;-38
2023/09/25 05:40:26;;;;;;;16.80;11.30;;;;;;;17.34;69.22;100432.34;107255;1257;67576;-39
2023/09/25 05:42:54;;;;;;;16.00;10.60;;;;;;;17.44;69.16;100434.52;107248;1257;72962;-39
2023/09/25 05:45:22;;;;;;;13.60;10.60;;;;;;;17.54;69.06;100441.02;107244;1260;61685;-38
2023/09/25 05:47:49;;;;;;;14.10;11.30;;;;;;;17.62;69.11;100444.02;107272;1257;60434;-39
2023/09/25 05:50:17;;;;;;;15.50;11.40;;;;;;;17.68;69.18;100444.63;107233;1260;73813;-39
2023/09/25 05:52:45;;;;;;;18.50;11.00;;;;;;;17.73;69.26;100443.32;107235;1262;66069;-39
2023/09/25 05:55:12;;;;;;;17.60;11.40;;;;;;;17.78;69.22;100443.35;107219;1260;72305;-39
2023/09/25 05:57:41;;;;;;;20.60;11.40;;;;;;;17.86;69.47;100445.92;107233;1263;61657;-39
2023/09/25 06:00:13;;;;;;;14.00;10.50;;;;;;;17.97;69.46;100447.32;107239;1260;60323;-38
2023/09/25 06:02:42;;;;;;;13.90;10.80;;;;;;;18.09;69.61;100450.92;107251;1260;72468;-39
2023/09/25 06:05:12;;;;;;;13.40;10.60;;;;;;;18.23;69.46;100457.02;107313;1261;66825;-39
2023/09/25 06:07:42;;;;;;;16.40;10.50;;;;;;;18.33;69.39;100457.72;107295;1261;72686;-39
2023/09/25 06:10:11;;;;;;;20.10;12.00;;;;;;;18.43;69.28;100455.72;107239;1262;60563;-39
2023/09/25 06:12:39;;;;;;;20.00;11.50;;;;;;;18.50;69.15;100454.50;107323;1260;60294;-38
2023/09/25 06:15:09;;;;;;;17.40;11.00;;;;;;;18.55;69.19;100452.28;107255;1258;73917;-39
2023/09/25 06:17:38;;;;;;;16.50;10.70;;;;;;;18.66;68.86;100453.66;107285;1257;67564;-39
2023/09/25 06:20:14;;;;;;;18.60;11.20;;;;;;;18.78;68.59;100459.65;107244;1257;72719;-39
2023/09/25 06:22:44;;;;;;;18.60;9.90;;;;;;;18.86;68.34;100458.50;107271;1261;60444;-39
2023/09/25 06:25:17;;;;;;;15.80;11.20;;;;;;;18.93;67.91;100460.24;107297;1257;60393;-39
2023/09/25 06:27:46;;;;;;;20.30;11.20;;;;;;;19.02;67.79;100465.61;107242;1257;73876;-39
2023/09/25 06:30:16;;;;;;;20.00;10.90;;;;;;;19.10;67.66;100463.42;107262;1261;67943;-39
2023/09/25 06:32:44;;;;;;;21.10;10.70;;;;;;;19.22;67.69;100468.08;107261;1260;71459;-39
2023/09/25 06:35:12;;;;;;;15.10;9.40;;;;;;;19.35;67.37;100468.80;107240;1262;60560;-39
2023/09/25 06:37:40;;;;;;;15.10;10.80;;;;;;;19.44;66.84;100471.89;107227;1257;62145;-39
2023/09/25 06:40:15;;;;;;;15.50;9.90;;;;;;;19.53;66.54;100475.67;107238;1257;73827;-39
2023/09/25 06:42:43;;;;;;;14.80;9.90;;;;;;;19.63;66.31;100480.56;107270;1260;67932;-39
2023/09/25 06:45:11;;;;;;;16.00;10.50;;;;;;;19.68;65.68;100481.98;107238;1260;72664;-40
2023/09/25 06:47:39;;;;;;;16.90;10.20;;;;;;;19.74;65.52;100484.01;107235;1258;60397;-40
2023/09/25 06:50:07;;;;;;;18.40;9.20;;;;;;;19.82;65.25;100490.77;107261;1256;60474;-40
2023/09/25 06:52:36;;;;;;;13.50;9.30;;;;;;;19.92;64.36;100491.30;107264;1257;73836;-38
2023/09/25 06:55:04;;;;;;;12.30;8.50;;;;;;;20.05;64.25;100493.80;107235;1259;67859;-38
2023/09/25 06:57:32;;;;;;;16.20;9.60;;;;;;;20.14;64.01;100494.98;107254;1258;71379;-38
2023/09/25 07:00:00;;;;;;;12.60;9.30;;;;;;;20.23;64.06;100498.81;107248;1257;60302;-38
2023/09/25 07:02:27;;;;;;;17.80;9.80;;;;;;;20.33;64.03;100499.27;107221;1257;60367;-38
2023/09/25 07:04:58;;;;;;;15.60;10.10;;;;;;;20.43;64.11;100504.77;107220;1257;73867;-39
2023/09/25 07:07:26;;;;;;;16.50;10.50;;;;;;;20.50;63.89;100504.75;107253;1257;67890;-39
2023/09/25 07:09:53;;;;;;;16.00;10.10;;;;;;;20.55;63.24;100506.93;107245;1256;71468;-39
2023/09/25 07:12:21;;;;;;;14.50;9.60;;;;;;;20.59;63.24;100506.20;107223;1257;60354;-38
2023/09/25 07:14:56;;;;;;;14.50;10.10;;;;;;;20.62;63.24;100510.45;107234;1256;60498;-39
2023/09/25 07:17:24;;;;;;;14.60;9.80;;;;;;;20.70;62.82;100508.06;107233;1262;74179;-39
2023/09/25 07:19:52;;;;;;;15.20;9.30;;;;;;;20.79;62.43;100507.95;107230;1257;67634;-38
2023/09/25 07:22:21;;;;;;;16.50;9.50;;;;;;;20.86;62.60;100508.86;107273;1258;72673;-39
2023/09/25 07:24:49;;;;;;;14.80;9.00;;;;;;;20.94;62.45;100511.34;107245;1257;60146;-38
2023/09/25 07:27:17;;;;;;;14.70;9.40;;;;;;;20.99;62.56;100499.58;107261;1257;60342;-38
2023/09/25 07:29:45;;;;;;;15.50;10.10;;;;;;;21.12;62.22;100509.05;107245;1258;73843;-38
2023/09/25 07:32:14;;;;;;;14.80;10.20;;;;;;;21.20;61.93;100510.04;107251;1260;68031;-38
2023/09/25 07:34:48;;;;;;;15.10;9.10;;;;;;;21.29;61.87;100512.27;107225;1257;72759;-39
2023/09/25 07:37:17;;;;;;;12.60;9.10;;;;;;;21.36;61.10;100508.85;107277;1257;60719;-39
2023/09/25 07:39:45;;;;;;;16.60;9.90;;;;;;;21.43;61.23;100509.56;107223;1260;62212;-39
2023/09/25 07:42:13;;;;;;;12.80;9.20;;;;;;;21.52;60.86;100509.83;107267;1257;74797;-39
2023/09/25 07:44:42;;;;;;;16.50;9.20;;;;;;;21.61;60.09;100511.65;107218;1257;66765;-39
2023/09/25 07:47:12;;;;;;;13.40;9.20;;;;;;;21.72;59.56;100514.64;107264;1260;71595;-39
2023/09/25 07:49:44;;;;;;;16.80;9.40;;;;;;;21.82;58.90;100515.66;107264;1257;60559;-40
2023/09/25 07:52:16;;;;;;;10.70;8.10;;;;;;;21.92;57.51;100519.84;107222;1260;61165;-39
2023/09/25 07:54:51;;;;;;;15.50;8.80;;;;;;;22.02;56.52;100523.63;107317;1257;74656;-38
2023/09/25 07:57:19;;;;;;;13.80;8.50;;;;;;;22.12;56.32;100527.16;107300;1261;67903;-39
2023/09/25 07:59:48;;;;;;;14.30;8.70;;;;;;;22.22;56.35;100529.84;107288;1257;74939;-39
2023/09/25 08:02:20;;;;;;;16.20;8.30;;;;;;;22.31;56.30;100532.89;107053;1257;268718;-39
2023/09/25 08:06:27;;;;;;;13.30;8.60;;;;;;;22.47;55.45;100532.42;104106;1292;601213;-39
2023/09/25 08:08:59;;;;;;;13.70;8.00;;;;;;;22.55;55.11;100537.05;106633;1272;60196;-39
2023/09/25 08:11:27;;;;;;;11.60;8.50;;;;;;;22.64;54.98;100537.12;106642;1267;59263;-39
2023/09/25 08:13:54;;;;;;;12.20;8.40;;;;;;;22.73;55.18;100538.55;106591;1267;70631;-39
2023/09/25 08:16:23;;;;;;;11.70;8.00;;;;;;;22.80;54.63;100541.05;106663;1266;68096;-39
2023/09/25 08:18:51;;;;;;;11.70;8.10;;;;;;;22.82;54.26;100540.73;106717;1267;72835;-39
2023/09/25 08:21:20;;;;;;;10.20;8.40;;;;;;;22.86;54.35;100540.36;106532;1264;59418;-39
2023/09/25 08:23:48;;;;;;;11.90;8.20;;;;;;;22.93;54.09;100539.33;106824;1264;60100;-39
2023/09/25 08:26:16;;;;;;;10.30;8.80;;;;;;;23.03;53.94;100539.36;106821;1269;72243;-39
2023/09/25 08:28:44;;;;;;;14.20;8.50;;;;;;;23.11;54.08;100538.86;106802;1264;67619;-39
2023/09/25 08:31:11;;;;;;;10.70;7.90;;;;;;;23.19;54.01;100537.64;106791;1264;73039;-39
2023/09/25 08:33:40;;;;;;;10.60;7.70;;;;;;;23.29;54.29;100542.30;106807;1264;59246;-39
2023/09/25 08:36:10;;;;;;;14.90;8.40;;;;;;;23.43;53.87;100543.23;106761;1268;59504;-39
2023/09/25 08:38:38;;;;;;;13.30;9.20;;;;;;;23.51;53.72;100540.67;106818;1264;73001;-39
2023/09/25 08:41:06;;;;;;;11.00;8.70;;;;;;;23.58;53.63;100540.83;106836;1264;67813;-39
2023/09/25 08:43:34;;;;;;;12.40;8.10;;;;;;;23.67;53.23;100540.73;106811;1267;73049;-39
2023/09/25 08:46:02;;;;;;;10.70;8.50;;;;;;;23.78;52.72;100540.73;106794;1264;59526;-39
2023/09/25 08:48:30;;;;;;;10.50;8.60;;;;;;;23.89;52.50;100544.35;106800;1264;59755;-39
2023/09/25 08:50:58;;;;;;;11.80;8.60;;;;;;;24.01;52.11;100549.52;106824;1264;71671;-39
2023/09/25 08:53:26;;;;;;;14.90;8.60;;;;;;;24.11;51.65;100547.27;106745;1269;67356;-39
2023/09/25 08:55:54;;;;;;;11.60;8.70;;;;;;;24.22;51.79;100550.94;106738;1269;71471;-39
2023/09/25 08:58:22;;;;;;;11.60;8.40;;;;;;;24.31;51.28;100545.14;106648;1267;59650;-39
2023/09/25 09:00:50;;;;;;;12.20;8.80;;;;;;;24.40;51.50;100544.34;106761;1263;60064;-39
2023/09/25 09:03:18;;;;;;;13.70;8.40;;;;;;;24.52;51.36;100544.76;106777;1266;73126;-39
2023/09/25 09:05:47;;;;;;;11.30;8.10;;;;;;;24.66;51.29;100541.53;106771;1269;67933;-38
2023/09/25 09:08:16;;;;;;;14.80;7.90;;;;;;;24.82;50.34;100539.02;106729;1269;71457;-38
2023/09/25 09:10:43;;;;;;;12.40;8.20;;;;;;;24.97;49.89;100539.10;106755;1265;60165;-39
2023/09/25 09:13:11;;;;;;;11.10;8.00;;;;;;;25.12;49.77;100540.77;106747;1267;60958;-40
2023/09/25 09:15:39;;;;;;;11.70;8.10;;;;;;;25.26;49.40;100545.30;106740;1266;74387;-39
2023/09/25 09:18:20;;;;;;;10.50;7.60;;;;;;;25.36;48.74;100542.20;106833;1269;67797;-39
2023/09/25 09:20:53;;;;;;;18.00;7.80;;;;;;;25.46;47.93;100536.17;106726;1269;72813;-40
2023/09/25 09:23:29;;;;;;;12.30;7.30;;;;;;;25.60;47.31;100535.81;106773;1267;59519;-39
2023/09/25 09:25:57;;;;;;;10.80;7.50;;;;;;;25.76;46.75;100533.91;106768;1267;59533;-39
2023/09/25 09:28:25;;;;;;;12.30;7.30;;;;;;;25.89;46.20;100531.67;106684;1264;75281;-39
2023/09/25 09:30:52;;;;;;;12.80;6.90;;;;;;;25.99;45.94;100532.45;106795;1269;66362;-40
2023/09/25 09:33:20;;;;;;;12.20;6.80;;;;;;;26.13;45.24;100539.38;106756;1267;72709;-39
2023/09/25 09:35:49;;;;;;;11.70;7.00;;;;;;;26.28;45.22;100536.24;106715;1266;60941;-39
2023/09/25 09:38:17;;;;;;;14.10;8.00;;;;;;;26.45;44.37;100535.95;106730;1269;60027;-39
2023/09/25 09:40:44;;;;;;;11.40;7.50;;;;;;;26.61;43.66;100539.17;106732;1267;73034;-39
2023/09/25 09:43:12;;;;;;;12.10;7.40;;;;;;;26.74;43.50;100532.73;106736;1267;67128;-40
2023/09/25 09:46:31;;;;;;;9.90;7.00;;;;;;;26.88;43.01;100534.13;106582;1269;70790;-39
2023/09/25 09:48:58;;;;;;;9.20;6.60;;;;;;;26.94;42.69;100518.98;106697;1269;61544;-39
2023/09/25 09:51:26;;;;;;;10.40;6.80;;;;;;;27.07;42.15;100523.86;106724;1270;60331;-39
2023/09/25 09:53:54;;;;;;;11.10;6.80;;;;;;;27.15;42.05;100520.09;106701;1264;71978;-39
2023/09/25 09:56:22;;;;;;;12.50;7.50;;;;;;;27.25;41.98;100517.96;106767;1266;70155;-39
2023/09/25 09:58:50;;;;;;;13.10;7.70;;;;;;;27.37;42.06;100518.80;106657;1270;74864;-39
2023/09/25 10:01:18;;;;;;;13.80;7.00;;;;;;;27.45;42.25;100512.42;106816;1264;60713;-39
2023/09/25 10:03:46;;;;;;;12.50;6.50;;;;;;;27.62;41.46;100513.95;106735;1264;62011;-39
2023/09/25 10:06:14;;;;;;;11.90;6.00;;;;;;;27.75;39.96;100509.36;106847;1263;73537;-39
2023/09/25 10:09:08;;;;;;;9.90;5.90;;;;;;;27.88;39.17;100509.95;106785;1269;66822;-39
2023/09/25 10:11:36;;;;;;;10.30;6.10;;;;;;;28.02;39.36;100504.61;106778;1269;71550;-40
2023/09/25 10:14:04;;;;;;;13.20;6.40;;;;;;;28.18;38.75;100506.57;106770;1268;59860;-40
2023/09/25 10:16:51;;;;;;;9.80;6.50;;;;;;;28.30;37.89;100497.22;106793;1269;60035;-40
2023/09/25 10:19:22;;;;;;;13.70;6.40;;;;;;;28.42;38.30;100500.04;106819;1269;74007;-39
2023/09/25 10:22:21;;;;;;;15.20;6.70;;;;;;;28.57;38.55;100498.71;106806;1264;67870;-40
2023/09/25 10:25:04;;;;;;;13.30;6.60;;;;;;;28.74;38.36;100496.49;106810;1264;73486;-40
2023/09/25 10:27:32;;;;;;;12.80;6.50;;;;;;;28.86;38.39;100495.41;106782;1264;60191;-40
2023/09/25 10:30:14;;;;;;;12.00;6.00;;;;;;;28.98;38.14;100489.68;106852;1264;60058;-40
2023/09/25 10:32:49;;;;;;;13.30;6.40;;;;;;;29.13;37.47;100485.65;106788;1269;73001;-40
2023/09/25 10:35:40;;;;;;;14.70;6.20;;;;;;;29.27;37.14;100486.77;106910;1269;67327;-40
2023/09/25 10:38:25;;;;;;;13.10;5.70;;;;;;;29.43;35.74;100485.35;106843;1264;74920;-40
2023/09/25 10:41:02;;;;;;;9.70;4.70;;;;;;;29.57;35.25;100485.02;106812;1267;62528;-40
2023/09/25 10:43:30;;;;;;;12.90;5.30;;;;;;;29.73;34.51;100482.29;106770;1264;60215;-40
2023/09/25 10:45:58;;;;;;;11.30;5.40;;;;;;;29.91;34.29;100475.70;106696;1269;71763;-40
2023/09/25 10:48:28;;;;;;;10.50;4.60;;;;;;;30.06;34.17;100480.27;106768;1270;67716;-39
2023/09/25 10:50:56;;;;;;;7.60;5.20;;;;;;;30.24;33.68;100476.70;106727;1267;74807;-39
2023/09/25 10:53:26;;;;;;;14.40;5.90;;;;;;;30.43;33.37;100473.02;106747;1269;60151;-40
2023/09/25 10:55:54;;;;;;;;;;;;;;;30.61;33.15;100466.27;106836;1264;60150;-39
2023/09/25 10:58:21;;;;;;;9.60;4.40;;;;;;;30.75;31.93;100466.86;106832;1269;73207;-39
2023/09/25 11:00:52;;;;;;;10.80;5.30;;;;;;;30.82;31.70;100467.23;106782;1267;67655;-39
2023/09/25 11:03:20;;;;;;;13.20;4.30;;;;;;;30.91;31.94;100465.77;106735;1269;72890;-40
2023/09/25 11:05:48;;;;;;;11.40;4.30;;;;;;;31.00;30.59;100463.98;106757;1268;60134;-39
2023/09/25 11:08:16;;;;;;;11.60;4.50;;;;;;;31.13;30.89;100464.16;106911;1266;60201;-39
2023/09/25 11:10:45;;;;;;;14.20;4.90;;;;;;;31.31;30.90;100463.39;106879;1266;72298;-39
2023/09/25 11:13:13;;;;;;;10.70;4.60;;;;;;;31.45;30.98;100460.97;107048;1264;67594;-39
2023/09/25 11:15:41;;;;;;;8.20;4.60;;;;;;;31.56;31.05;100465.74;106859;1264;73085;-39
2023/09/25 11:18:10;;;;;;;12.40;5.30;;;;;;;31.70;31.17;100460.84;106869;1263;60066;-39